Injune Post Office, Australia
Current Conditions -  °F | °C
As of 11:00 AM on Tuesday 25 Nov 2014 (Local Time) from YBCV Reporting Station
Clear Clear  
Wind Chill: 91°   Ceiling: Unl
Heat Index: 91°   Visibility: 6mi
Dew Point: 57°   Wind: 6mph
Humidity: 31%   Direction: 190°S
Pressure: 29.91"   Gusts: NA
Location:  25.85°S, 148.57°E
Report Text: YBCV 250100Z 19005KT CAVOK 33/14 Q1013
Loading
Personal Weather Stations






























Interactive Weather Map New forecast layout! Learn more

10-Day Weather Forecast

Advertisements
Track Severe Weather on mobile